Time;durP1;ratioP1;P1;durP2;ratioP2;P2;SDS_P1;SDS_P2;PMS_P1;PMS_P2;Temp;Humidity;BMP_temperature;BMP_pressure;BME280_temperature;BME280_humidity;BME280_pressure;Samples;Min_cycle;Max_cycle;Signal;HPM_P1;HPM_P2
2021/12/01 00:00:08;;;;;;;0.10;0.10;;;5.30;99.90;;;;;;5032041;28;20029;-86
2021/12/01 00:02:33;;;;;;;0.10;0.10;;;5.30;99.90;;;;;;5019682;28;20381;-84
2021/12/01 00:04:59;;;;;;;0.10;0.10;;;5.20;99.90;;;;;;5018096;28;20037;-86
2021/12/01 00:07:24;;;;;;;0.10;0.10;;;5.20;99.90;;;;;;5018032;28;20062;-86
2021/12/01 00:09:51;;;;;;;0.10;0.10;;;5.20;99.90;;;;;;5018843;28;20052;-85
2021/12/01 00:12:17;;;;;;;0.10;0.10;;;5.10;99.90;;;;;;5037841;28;20475;-85
2021/12/01 00:14:43;;;;;;;0.10;0.10;;;5.10;99.90;;;;;;5044373;28;20068;-85
2021/12/01 00:17:11;;;;;;;0.10;0.10;;;5.10;99.90;;;;;;5043580;28;20050;-85
2021/12/01 00:19:37;;;;;;;0.10;0.10;;;5.10;99.90;;;;;;5016662;28;20026;-84
2021/12/01 00:22:03;;;;;;;0.10;0.10;;;5.10;99.90;;;;;;5016188;28;20026;-85
2021/12/01 00:24:29;;;;;;;0.10;0.10;;;5.00;99.90;;;;;;5017158;28;20082;-86
2021/12/01 00:26:55;;;;;;;0.10;0.10;;;5.00;99.90;;;;;;5030717;28;20044;-85
2021/12/01 00:29:20;;;;;;;0.10;0.10;;;5.00;99.90;;;;;;5037475;28;20022;-86
2021/12/01 00:31:46;;;;;;;0.10;0.10;;;5.00;99.90;;;;;;5036735;28;20036;-85
2021/12/01 00:34:12;;;;;;;0.10;0.10;;;5.00;99.90;;;;;;5037059;28;20083;-84
2021/12/01 00:36:38;;;;;;;0.20;0.20;;;5.00;99.90;;;;;;5024637;28;20037;-85
2021/12/01 00:39:04;;;;;;;0.10;0.10;;;4.90;99.90;;;;;;5016778;28;20026;-86
2021/12/01 00:41:30;;;;;;;0.10;0.10;;;4.90;99.90;;;;;;5017204;28;20018;-85
2021/12/01 00:43:55;;;;;;;0.10;0.10;;;4.90;99.90;;;;;;5016474;28;20026;-85
2021/12/01 00:46:34;;;;;;;0.10;0.10;;;4.90;99.90;;;;;;5015596;28;20041;-86
2021/12/01 00:49:00;;;;;;;0.10;0.10;;;4.90;99.90;;;;;;5035448;28;20507;-85
2021/12/01 00:51:26;;;;;;;0.10;0.10;;;5.00;99.90;;;;;;5035153;28;20097;-85
2021/12/01 00:53:51;;;;;;;0.10;0.10;;;5.00;99.90;;;;;;5030883;28;20430;-86
2021/12/01 00:56:17;;;;;;;0.10;0.10;;;5.10;99.90;;;;;;5036961;28;20079;-85
2021/12/01 00:58:43;;;;;;;0.10;0.10;;;5.00;99.90;;;;;;5036213;28;20091;-85
2021/12/01 01:01:08;;;;;;;0.10;0.10;;;4.90;99.90;;;;;;5036009;28;20025;-84
2021/12/01 01:03:35;;;;;;;0.10;0.10;;;4.90;99.90;;;;;;5033883;28;20108;-85
2021/12/01 01:06:00;;;;;;;0.10;0.10;;;4.90;99.90;;;;;;5036041;28;20471;-85
2021/12/01 01:08:26;;;;;;;0.10;0.10;;;4.90;99.90;;;;;;5036164;28;20029;-85
2021/12/01 01:16:22;;;;;;;0.10;0.10;;;5.00;99.90;;;;;;5034231;28;20047;-85
2021/12/01 01:19:00;;;;;;;0.10;0.10;;;5.00;99.90;;;;;;5036288;28;20043;-85
2021/12/01 01:21:28;;;;;;;0.10;0.10;;;5.40;99.90;;;;;;5021630;28;20026;-86
2021/12/01 01:23:54;;;;;;;0.10;0.10;;;5.10;99.90;;;;;;5015121;28;20022;-86
2021/12/01 01:26:22;;;;;;;0.10;0.10;;;5.00;99.90;;;;;;5016471;28;20030;-85
2021/12/01 01:28:48;;;;;;;0.10;0.10;;;5.00;99.90;;;;;;5016410;28;20034;-85
2021/12/01 01:31:17;;;;;;;0.10;0.10;;;5.00;99.90;;;;;;5016549;28;20040;-87
2021/12/01 01:33:43;;;;;;;0.10;0.10;;;5.00;99.90;;;;;;5017291;28;20034;-86
2021/12/01 01:36:09;;;;;;;0.10;0.10;;;5.00;99.90;;;;;;5014512;28;20084;-86
2021/12/01 01:38:35;;;;;;;0.10;0.10;;;5.10;99.90;;;;;;5017331;28;20104;-89
2021/12/01 01:41:04;;;;;;;0.10;0.10;;;5.10;99.90;;;;;;5033804;28;20021;-86
2021/12/01 01:43:30;;;;;;;0.30;0.30;;;5.10;99.90;;;;;;5036174;28;20028;-85
2021/12/01 01:45:56;;;;;;;0.10;0.10;;;5.10;99.90;;;;;;5026555;28;20026;-87
2021/12/01 01:48:29;;;;;;;0.10;0.10;;;5.10;99.90;;;;;;5030054;28;20083;-86
2021/12/01 01:50:55;;;;;;;0.10;0.10;;;5.20;99.90;;;;;;5036446;28;20479;-86
2021/12/01 01:53:22;;;;;;;0.10;0.10;;;5.10;99.90;;;;;;5036252;28;20033;-85
2021/12/01 01:55:51;;;;;;;0.10;0.10;;;5.20;99.90;;;;;;5023447;28;20033;-85
2021/12/01 01:58:18;;;;;;;0.10;0.10;;;5.10;99.90;;;;;;5018119;28;20045;-84
2021/12/01 02:01:05;;;;;;;0.22;0.22;;;5.20;99.90;;;;;;5036400;28;20033;-85
2021/12/01 02:03:32;;;;;;;0.10;0.10;;;5.10;99.90;;;;;;5034839;28;20017;-84
2021/12/01 02:05:57;;;;;;;0.10;0.10;;;5.10;99.90;;;;;;5035735;28;20032;-86
2021/12/01 02:08:31;;;;;;;0.10;0.10;;;5.20;99.90;;;;;;5035751;28;20029;-86
2021/12/01 02:11:00;;;;;;;;;;;5.20;99.90;;;;;;5028328;28;20030;-87
2021/12/01 02:13:27;;;;;;;0.10;0.10;;;5.20;99.90;;;;;;5027670;28;19905;-86
2021/12/01 02:15:53;;;;;;;0.10;0.10;;;5.20;99.90;;;;;;5033783;28;20667;-85
2021/12/01 02:18:20;;;;;;;0.10;0.10;;;5.20;99.90;;;;;;5036310;28;20029;-86
2021/12/01 02:21:11;;;;;;;1.10;1.10;;;5.20;99.90;;;;;;5016756;28;20033;-86
2021/12/01 02:23:48;;;;;;;0.10;0.10;;;5.20;99.90;;;;;;5014040;28;20060;-86
2021/12/01 02:26:17;;;;;;;0.10;0.10;;;5.20;99.90;;;;;;5016034;28;20026;-86
2021/12/01 02:28:44;;;;;;;0.10;0.10;;;5.20;99.90;;;;;;5017794;28;20143;-86
2021/12/01 02:31:10;;;;;;;0.10;0.10;;;5.20;99.90;;;;;;5035775;28;20021;-86
2021/12/01 02:33:36;;;;;;;0.10;0.10;;;5.30;99.90;;;;;;5034306;28;20097;-86
2021/12/01 02:36:02;;;;;;;0.10;0.10;;;5.30;99.90;;;;;;5034673;28;20458;-85
2021/12/01 02:38:28;;;;;;;0.10;0.10;;;5.30;99.90;;;;;;5035446;28;20031;-87
2021/12/01 02:40:54;;;;;;;0.10;0.10;;;5.30;99.90;;;;;;5035818;28;20109;-86
2021/12/01 02:43:24;;;;;;;0.10;0.10;;;5.30;99.90;;;;;;5036385;28;20050;-86
2021/12/01 02:45:53;;;;;;;0.10;0.10;;;5.30;99.90;;;;;;5033716;28;20026;-86
2021/12/01 02:48:20;;;;;;;0.10;0.10;;;5.30;99.90;;;;;;5028853;28;20056;-86
2021/12/01 02:50:45;;;;;;;0.10;0.10;;;5.30;99.90;;;;;;5035362;28;20030;-86
2021/12/01 02:53:11;;;;;;;0.10;0.10;;;5.40;99.90;;;;;;5035157;28;20532;-86
2021/12/01 02:55:50;;;;;;;0.10;0.10;;;5.40;99.90;;;;;;5033607;28;20041;-85
2021/12/01 02:58:17;;;;;;;0.10;0.10;;;5.40;99.90;;;;;;5035296;28;20159;-85
2021/12/01 03:00:44;;;;;;;0.10;0.10;;;5.40;99.90;;;;;;5035419;28;20017;-86
2021/12/01 03:03:11;;;;;;;0.10;0.10;;;5.40;99.90;;;;;;5027819;28;20120;-85
2021/12/01 03:05:38;;;;;;;0.10;0.10;;;6.40;99.90;;;;;;5034643;28;20033;-86
2021/12/01 03:08:04;;;;;;;0.00;0.00;;;5.40;99.90;;;;;;5035930;28;20034;-86
2021/12/01 03:10:30;;;;;;;0.10;0.10;;;5.50;99.90;;;;;;5035593;28;20033;-87
2021/12/01 03:12:56;;;;;;;0.10;0.10;;;5.50;99.90;;;;;;5018045;28;20041;-87
2021/12/01 03:15:22;;;;;;;0.32;0.32;;;5.50;99.90;;;;;;5029938;28;20091;-86
2021/12/01 03:17:47;;;;;;;0.10;0.10;;;5.40;99.90;;;;;;5049627;28;20029;-85
2021/12/01 03:20:14;;;;;;;0.10;0.10;;;5.40;99.90;;;;;;5039986;28;20479;-86
2021/12/01 03:22:43;;;;;;;0.10;0.10;;;5.50;99.90;;;;;;5034853;28;20036;-87
2021/12/01 03:25:13;;;;;;;0.10;0.10;;;5.50;99.90;;;;;;5036190;28;20040;-87
2021/12/01 03:27:40;;;;;;;0.10;0.10;;;5.50;99.90;;;;;;5038680;28;20028;-87
2021/12/01 03:30:07;;;;;;;0.10;0.10;;;5.70;99.90;;;;;;5020101;28;20033;-86
2021/12/01 03:32:33;;;;;;;0.10;0.10;;;5.50;99.90;;;;;;5017326;28;20022;-86
2021/12/01 03:35:00;;;;;;;0.10;0.10;;;5.50;99.90;;;;;;5026060;28;20068;-86
2021/12/01 03:37:25;;;;;;;0.00;0.00;;;5.50;99.90;;;;;;5025676;28;20074;-88
2021/12/01 03:39:51;;;;;;;0.10;0.10;;;5.60;99.90;;;;;;5024961;28;20034;-86
2021/12/01 03:42:17;;;;;;;0.10;0.10;;;5.60;99.90;;;;;;5022905;28;20029;-86
2021/12/01 03:44:42;;;;;;;0.10;0.10;;;5.50;99.90;;;;;;5024034;28;20041;-86
2021/12/01 03:47:08;;;;;;;0.10;0.10;;;5.60;99.90;;;;;;5028510;28;20105;-87
2021/12/01 03:49:33;;;;;;;0.10;0.10;;;5.60;99.90;;;;;;5031290;28;20424;-85
2021/12/01 03:51:59;;;;;;;0.10;0.10;;;5.60;99.90;;;;;;5028888;28;20037;-85
2021/12/01 03:54:26;;;;;;;0.10;0.10;;;5.60;99.90;;;;;;5028674;28;20049;-85
2021/12/01 03:56:51;;;;;;;0.10;0.10;;;5.60;99.90;;;;;;5028271;28;20022;-86
2021/12/01 03:59:17;;;;;;;0.10;0.10;;;5.60;99.90;;;;;;5025145;28;20045;-86
2021/12/01 04:01:43;;;;;;;0.10;0.10;;;5.60;99.90;;;;;;5038519;28;20021;-85
2021/12/01 04:04:08;;;;;;;0.10;0.10;;;5.60;99.90;;;;;;5052449;28;20021;-87
2021/12/01 04:06:34;;;;;;;0.10;0.10;;;5.60;99.90;;;;;;5049000;28;20041;-86
2021/12/01 04:09:00;;;;;;;0.10;0.10;;;5.60;99.90;;;;;;5016956;28;20034;-86
2021/12/01 04:11:26;;;;;;;0.10;0.10;;;5.60;99.90;;;;;;5018058;28;20562;-85
2021/12/01 04:13:56;;;;;;;0.10;0.10;;;5.60;99.90;;;;;;5018614;28;20061;-86
2021/12/01 04:16:21;;;;;;;0.10;0.10;;;5.70;99.90;;;;;;5022526;28;20036;-85
2021/12/01 04:18:47;;;;;;;0.10;0.10;;;5.70;99.90;;;;;;5023396;28;20161;-86
2021/12/01 04:21:13;;;;;;;0.10;0.10;;;5.70;99.90;;;;;;5024016;28;20022;-84
2021/12/01 04:23:39;;;;;;;0.10;0.10;;;5.70;99.90;;;;;;5026928;28;20037;-84
2021/12/01 04:26:05;;;;;;;0.10;0.10;;;5.70;99.90;;;;;;5034628;28;20030;-84
2021/12/01 04:28:31;;;;;;;0.10;0.10;;;5.70;99.90;;;;;;5046948;28;20033;-86
2021/12/01 04:30:57;;;;;;;0.10;0.10;;;5.70;99.90;;;;;;5050454;28;20023;-86
2021/12/01 04:33:22;;;;;;;0.10;0.10;;;5.70;99.90;;;;;;5049047;28;20033;-87
2021/12/01 04:35:50;;;;;;;0.10;0.10;;;5.70;99.90;;;;;;5044704;28;20108;-85
2021/12/01 04:38:16;;;;;;;0.00;0.00;;;5.80;99.90;;;;;;5045418;28;20040;-84
2021/12/01 04:40:41;;;;;;;0.20;0.20;;;5.80;99.90;;;;;;5046825;28;20091;-85
2021/12/01 04:43:07;;;;;;;0.10;0.10;;;5.80;99.90;;;;;;5041506;28;20030;-85
2021/12/01 04:45:36;;;;;;;0.10;0.10;;;5.80;99.90;;;;;;5024818;28;20125;-87
2021/12/01 04:48:03;;;;;;;0.10;0.10;;;5.80;99.90;;;;;;5033117;28;20037;-87
2021/12/01 04:50:28;;;;;;;0.10;0.10;;;5.90;99.90;;;;;;5044758;28;20053;-87
2021/12/01 04:52:57;;;;;;;0.10;0.10;;;5.90;99.90;;;;;;5047807;28;20375;-85
2021/12/01 04:55:24;;;;;;;0.10;0.10;;;5.90;99.90;;;;;;5032683;28;20089;-86
2021/12/01 04:57:49;;;;;;;0.10;0.10;;;6.00;99.90;;;;;;5048855;28;20061;-86
2021/12/01 05:00:20;;;;;;;0.00;0.00;;;6.00;99.90;;;;;;5039181;28;20030;-85
2021/12/01 05:02:46;;;;;;;0.10;0.10;;;6.00;99.90;;;;;;5031248;28;20026;-86
2021/12/01 05:05:11;;;;;;;0.10;0.10;;;5.90;99.90;;;;;;5055912;28;20053;-86
2021/12/01 05:07:37;;;;;;;0.10;0.10;;;6.00;99.90;;;;;;5043893;28;20372;-87
2021/12/01 05:10:04;;;;;;;0.10;0.10;;;6.00;99.90;;;;;;5036264;28;20036;-86
2021/12/01 05:12:30;;;;;;;0.10;0.10;;;6.00;99.90;;;;;;5029664;28;20018;-86
2021/12/01 05:14:56;;;;;;;0.10;0.10;;;6.10;99.90;;;;;;5029382;28;20029;-86
2021/12/01 05:17:21;;;;;;;0.10;0.10;;;6.10;99.90;;;;;;5029681;28;20018;-85
2021/12/01 05:19:48;;;;;;;0.10;0.10;;;6.10;99.90;;;;;;5030208;28;20030;-86
2021/12/01 05:22:14;;;;;;;0.10;0.10;;;6.20;99.90;;;;;;5029777;28;20033;-86
2021/12/01 05:24:40;;;;;;;0.10;0.10;;;6.20;99.90;;;;;;5029960;28;20216;-87
2021/12/01 05:27:05;;;;;;;0.10;0.10;;;6.20;99.90;;;;;;5026819;28;20030;-86
2021/12/01 05:29:31;;;;;;;0.10;0.10;;;6.20;99.90;;;;;;5026782;28;20022;-86
2021/12/01 05:31:57;;;;;;;0.10;0.10;;;6.20;99.90;;;;;;5036131;28;20033;-88
2021/12/01 05:34:24;;;;;;;0.10;0.10;;;6.20;99.90;;;;;;5045883;28;20029;-87
2021/12/01 05:36:50;;;;;;;0.10;0.10;;;6.30;99.90;;;;;;5070578;23;20066;-79
2021/12/01 05:39:17;;;;;;;0.00;0.00;;;6.10;99.90;;;;;;5110330;27;20276;-78
2021/12/01 05:41:43;;;;;;;0.10;0.10;;;6.80;99.90;;;;;;5113477;28;20076;-78
2021/12/01 05:44:08;;;;;;;0.10;0.10;;;6.40;99.90;;;;;;5122321;28;20023;-79
2021/12/01 05:46:34;;;;;;;0.10;0.10;;;6.50;99.90;;;;;;5116096;28;20059;-78
2021/12/01 05:49:00;;;;;;;0.10;0.10;;;6.60;99.90;;;;;;5119009;27;20074;-78
2021/12/01 05:51:26;;;;;;;0.10;0.10;;;6.50;99.90;;;;;;5113907;28;20031;-77
2021/12/01 05:53:52;;;;;;;0.10;0.10;;;7.40;99.90;;;;;;5130681;28;20031;-78
2021/12/01 05:56:18;;;;;;;0.00;0.00;;;6.50;99.90;;;;;;5120866;28;20058;-77
2021/12/01 05:58:43;;;;;;;0.10;0.10;;;6.60;99.90;;;;;;5104260;28;20077;-77
2021/12/01 06:01:09;;;;;;;0.10;0.10;;;6.90;99.90;;;;;;5101017;28;20462;-79
2021/12/01 06:03:35;;;;;;;0.10;0.10;;;6.60;99.90;;;;;;5112022;28;20138;-79
2021/12/01 06:06:01;;;;;;;0.10;0.10;;;6.50;99.90;;;;;;5109617;28;20142;-79
2021/12/01 06:08:26;;;;;;;0.10;0.10;;;6.60;99.90;;;;;;5110442;28;20035;-79
2021/12/01 06:10:52;;;;;;;0.10;0.10;;;7.40;99.90;;;;;;5110541;28;20485;-79
2021/12/01 06:13:20;;;;;;;0.10;0.10;;;7.00;99.90;;;;;;5109957;28;20059;-79
2021/12/01 06:15:49;;;;;;;0.10;0.10;;;7.50;99.90;;;;;;5107511;28;20169;-80
2021/12/01 06:18:15;;;;;;;0.10;0.10;;;6.60;99.90;;;;;;5113137;28;20016;-79
2021/12/01 06:20:41;;;;;;;0.10;0.10;;;7.20;99.90;;;;;;5118978;28;20023;-78
2021/12/01 06:23:07;;;;;;;0.10;0.10;;;6.60;99.90;;;;;;5111703;28;20050;-79
2021/12/01 06:25:33;;;;;;;0.10;0.10;;;6.70;99.90;;;;;;5112050;28;20032;-79
2021/12/01 06:27:59;;;;;;;0.10;0.10;;;6.70;99.90;;;;;;5106440;28;20027;-79
2021/12/01 06:30:26;;;;;;;0.10;0.10;;;6.70;99.90;;;;;;5107550;28;20023;-79
2021/12/01 06:32:53;;;;;;;0.10;0.10;;;6.60;99.90;;;;;;5090504;28;20059;-79
2021/12/01 06:35:19;;;;;;;0.30;0.30;;;7.30;99.90;;;;;;5091451;28;20028;-79
2021/12/01 06:37:46;;;;;;;0.00;0.00;;;7.90;99.90;;;;;;5091692;28;20024;-79
2021/12/01 06:40:13;;;;;;;0.10;0.10;;;7.10;99.90;;;;;;5102121;28;20051;-79
2021/12/01 06:42:39;;;;;;;2.92;1.85;;;6.80;99.90;;;;;;5090666;28;20540;-79
2021/12/01 06:45:07;;;;;;;0.10;0.10;;;7.80;99.90;;;;;;5101750;28;20524;-79
2021/12/01 06:47:33;;;;;;;0.10;0.10;;;6.80;99.90;;;;;;5104789;28;20035;-79
2021/12/01 06:49:59;;;;;;;0.10;0.10;;;6.90;99.90;;;;;;5097810;28;20027;-79
2021/12/01 06:52:28;;;;;;;0.10;0.10;;;6.90;99.90;;;;;;5103690;28;20031;-79
2021/12/01 06:54:55;;;;;;;0.10;0.10;;;6.90;99.90;;;;;;5111062;28;20036;-80
2021/12/01 06:57:21;;;;;;;0.10;0.10;;;6.90;99.90;;;;;;5090562;28;20614;-80
2021/12/01 06:59:46;;;;;;;0.10;0.10;;;6.90;99.90;;;;;;5104009;28;20040;-79
2021/12/01 07:02:12;;;;;;;0.10;0.10;;;6.90;99.90;;;;;;5109796;28;20502;-80
2021/12/01 07:04:38;;;;;;;0.10;0.10;;;7.70;99.90;;;;;;5111429;28;20039;-78
2021/12/01 07:07:04;;;;;;;0.10;0.10;;;7.10;99.90;;;;;;5101344;28;20121;-78
2021/12/01 07:09:30;;;;;;;0.10;0.10;;;7.00;99.90;;;;;;5093877;28;20023;-79
2021/12/01 07:11:55;;;;;;;0.10;0.10;;;7.00;99.90;;;;;;5092877;28;20039;-78
2021/12/01 07:14:23;;;;;;;0.10;0.10;;;7.10;99.90;;;;;;5110412;28;20463;-78
2021/12/01 07:16:49;;;;;;;1.35;1.30;;;7.50;99.90;;;;;;5111848;28;20077;-79
2021/12/01 07:19:15;;;;;;;0.10;0.10;;;7.60;99.90;;;;;;5110972;28;20023;-79
2021/12/01 07:21:40;;;;;;;0.10;0.10;;;7.20;99.90;;;;;;5111568;28;20546;-79
2021/12/01 07:24:06;;;;;;;0.10;0.10;;;7.70;99.90;;;;;;5109502;28;20024;-79
2021/12/01 07:26:32;;;;;;;0.10;0.10;;;7.20;99.90;;;;;;5111046;28;20035;-79
2021/12/01 07:28:59;;;;;;;0.43;0.43;;;7.20;99.90;;;;;;5111415;28;20079;-79
2021/12/01 07:31:24;;;;;;;0.17;0.17;;;7.40;99.90;;;;;;5103410;28;20036;-78
2021/12/01 07:33:50;;;;;;;0.10;0.10;;;7.30;99.90;;;;;;5096060;28;20119;-78
2021/12/01 07:36:16;;;;;;;0.10;0.10;;;7.30;99.90;;;;;;5096072;28;20027;-79
2021/12/01 07:38:42;;;;;;;0.03;0.03;;;7.30;99.90;;;;;;5114101;28;20023;-79
2021/12/01 07:41:08;;;;;;;0.10;0.10;;;7.40;99.90;;;;;;5113759;28;20035;-78
2021/12/01 07:43:34;;;;;;;1.55;1.45;;;7.40;99.90;;;;;;5107937;28;20030;-78
2021/12/01 07:46:02;;;;;;;0.10;0.10;;;7.40;99.90;;;;;;5110268;28;20438;-77
2021/12/01 07:48:29;;;;;;;0.10;0.10;;;7.40;99.90;;;;;;5111079;28;20023;-78
2021/12/01 07:50:55;;;;;;;0.10;0.10;;;7.50;99.90;;;;;;5114968;28;20028;-78
2021/12/01 07:53:22;;;;;;;0.10;0.10;;;7.50;99.90;;;;;;5112089;28;20031;-80
2021/12/01 07:55:48;;;;;;;0.10;0.10;;;7.50;99.90;;;;;;5111665;28;20046;-80
2021/12/01 07:58:14;;;;;;;0.10;0.10;;;7.40;99.90;;;;;;5114063;28;20016;-79
2021/12/01 08:00:40;;;;;;;0.10;0.10;;;7.50;99.90;;;;;;5113656;28;20732;-79
2021/12/01 08:03:06;;;;;;;0.10;0.10;;;7.60;99.90;;;;;;5115364;28;20488;-78
2021/12/01 08:05:32;;;;;;;0.10;0.10;;;8.40;99.90;;;;;;5108500;28;20088;-79
2021/12/01 08:07:58;;;;;;;0.10;0.10;;;7.60;99.90;;;;;;5114732;28;20063;-80
2021/12/01 08:10:24;;;;;;;0.10;0.10;;;7.60;99.90;;;;;;5113825;28;20031;-79
2021/12/01 08:12:51;;;;;;;0.10;0.10;;;7.70;99.90;;;;;;5109592;28;20024;-80
2021/12/01 08:15:17;;;;;;;0.10;0.10;;;7.70;99.90;;;;;;5094118;28;20401;-80
2021/12/01 08:17:42;;;;;;;0.10;0.10;;;8.20;99.90;;;;;;5094178;28;20021;-78
2021/12/01 08:20:09;;;;;;;0.10;0.10;;;7.70;99.90;;;;;;5103615;28;20028;-79
2021/12/01 08:22:35;;;;;;;0.10;0.10;;;7.70;99.90;;;;;;5093243;28;20031;-79
2021/12/01 08:25:01;;;;;;;0.10;0.10;;;7.70;99.90;;;;;;5107459;28;20019;-80
2021/12/01 08:27:28;;;;;;;0.10;0.10;;;7.70;99.90;;;;;;5113160;28;20008;-81
2021/12/01 08:29:55;;;;;;;0.10;0.10;;;7.80;99.90;;;;;;5104530;28;20020;-78
2021/12/01 08:32:21;;;;;;;0.10;0.10;;;7.80;99.90;;;;;;5094268;28;20051;-79
2021/12/01 08:34:50;;;;;;;0.10;0.10;;;7.90;99.90;;;;;;5108743;28;20047;-81
2021/12/01 08:37:18;;;;;;;0.10;0.10;;;8.00;99.90;;;;;;5104034;28;20032;-78
2021/12/01 08:39:45;;;;;;;0.10;0.10;;;8.10;99.90;;;;;;5102418;28;20020;-79
2021/12/01 08:42:12;;;;;;;0.10;0.10;;;8.10;99.90;;;;;;5102495;28;20524;-80
2021/12/01 08:44:44;;;;;;;0.10;0.10;;;8.30;99.90;;;;;;5112258;28;20408;-78
2021/12/01 08:47:14;;;;;;;0.10;0.10;;;8.70;99.90;;;;;;5094734;28;20028;-79
2021/12/01 08:49:40;;;;;;;0.10;0.10;;;8.20;99.90;;;;;;5094872;28;20020;-78
2021/12/01 08:52:06;;;;;;;0.10;0.10;;;8.30;99.90;;;;;;5102161;28;20032;-78
2021/12/01 08:54:32;;;;;;;0.10;0.10;;;9.00;99.90;;;;;;5110763;28;20024;-79
2021/12/01 08:56:58;;;;;;;0.10;0.10;;;7.70;99.90;;;;;;5096349;28;20035;-79
2021/12/01 08:59:23;;;;;;;0.10;0.10;;;8.40;99.90;;;;;;5113318;28;20038;-77
2021/12/01 09:01:50;;;;;;;0.10;0.10;;;8.50;99.90;;;;;;5132517;28;20027;-79
2021/12/01 09:04:16;;;;;;;0.10;0.10;;;8.50;99.90;;;;;;5134325;27;20123;-79
2021/12/01 09:06:41;;;;;;;0.10;0.10;;;8.60;99.90;;;;;;5132579;28;20023;-78
2021/12/01 09:09:07;;;;;;;0.10;0.10;;;9.10;99.90;;;;;;5133479;28;20004;-79
2021/12/01 09:11:33;;;;;;;0.10;0.10;;;8.80;99.90;;;;;;5129427;28;20741;-78
2021/12/01 09:13:59;;;;;;;0.10;0.10;;;8.90;99.90;;;;;;5106395;28;20031;-78
2021/12/01 09:16:25;;;;;;;0.10;0.10;;;9.10;99.90;;;;;;5107525;28;20024;-78
2021/12/01 09:18:51;;;;;;;0.10;0.10;;;9.10;99.90;;;;;;5108412;27;20019;-77
2021/12/01 09:21:18;;;;;;;0.10;0.10;;;9.20;99.90;;;;;;5112266;28;20065;-78
2021/12/01 09:23:45;;;;;;;0.10;0.10;;;9.30;99.90;;;;;;5119220;28;20030;-77
2021/12/01 09:26:10;;;;;;;0.10;0.10;;;9.40;99.90;;;;;;5112830;28;20122;-78
2021/12/01 09:28:36;;;;;;;0.55;0.55;;;9.60;99.90;;;;;;5111900;28;20520;-78
2021/12/01 09:31:02;;;;;;;0.10;0.10;;;9.30;99.90;;;;;;5110217;28;20357;-78
2021/12/01 09:33:29;;;;;;;0.10;0.10;;;9.80;99.90;;;;;;5110381;28;20107;-78
2021/12/01 09:35:55;;;;;;;0.10;0.10;;;9.60;99.90;;;;;;5110925;28;20388;-78
2021/12/01 09:38:22;;;;;;;0.10;0.10;;;9.30;99.90;;;;;;5109051;27;20038;-77
2021/12/01 09:40:53;;;;;;;0.10;0.10;;;9.30;99.90;;;;;;5112883;28;20116;-78
2021/12/01 09:43:25;;;;;;;0.10;0.10;;;9.30;99.90;;;;;;5112584;27;20605;-77
2021/12/01 09:45:50;;;;;;;0.10;0.10;;;9.20;99.90;;;;;;5112620;28;20499;-77
2021/12/01 09:48:16;;;;;;;0.10;0.10;;;9.20;99.90;;;;;;5104220;28;20031;-77
2021/12/01 09:50:42;;;;;;;0.10;0.10;;;9.30;99.90;;;;;;5104360;28;20655;-78
2021/12/01 09:53:08;;;;;;;0.13;0.13;;;9.30;99.90;;;;;;5112795;28;20499;-78
2021/12/01 09:55:35;;;;;;;0.00;0.00;;;9.40;99.90;;;;;;5099061;28;20031;-78
2021/12/01 09:58:07;;;;;;;0.10;0.10;;;9.30;99.90;;;;;;5092859;28;20024;-78
2021/12/01 10:00:36;;;;;;;0.10;0.10;;;9.40;99.90;;;;;;5096143;28;20020;-79
2021/12/01 10:03:03;;;;;;;0.10;0.10;;;9.30;99.90;;;;;;5094658;28;20496;-78
2021/12/01 10:06:40;;;;;;;0.10;0.10;;;9.40;99.90;;;;;;5099788;28;20035;-77
2021/12/01 10:08:49;;;;;;;0.10;0.10;;;9.40;99.90;;;;;;5092671;28;20040;-77
2021/12/01 10:11:19;;;;;;;0.10;0.10;;;9.50;99.90;;;;;;5110985;28;20019;-78
2021/12/01 10:13:50;;;;;;;0.10;0.10;;;9.50;99.90;;;;;;5109835;28;20165;-77
2021/12/01 10:16:17;;;;;;;0.10;0.10;;;9.60;99.90;;;;;;5104058;28;20441;-79
2021/12/01 10:18:52;;;;;;;0.10;0.10;;;9.60;99.90;;;;;;5112337;28;20492;-79
2021/12/01 10:21:23;;;;;;;0.10;0.10;;;9.70;99.90;;;;;;5108556;28;20483;-79
2021/12/01 10:23:53;;;;;;;0.10;0.10;;;9.90;99.90;;;;;;5108401;28;20031;-80
2021/12/01 10:26:20;;;;;;;6.93;1.45;;;9.70;99.90;;;;;;5111488;28;20022;-79
2021/12/01 10:28:53;;;;;;;0.10;0.10;;;9.80;99.90;;;;;;5111357;28;20030;-80
2021/12/01 10:31:44;;;;;;;0.10;0.10;;;9.90;99.90;;;;;;5106343;28;20019;-78
2021/12/01 10:34:31;;;;;;;0.10;0.10;;;9.80;99.90;;;;;;5101728;28;20035;-79
2021/12/01 10:37:13;;;;;;;0.10;0.10;;;9.90;99.90;;;;;;5110268;28;20052;-79
2021/12/01 10:39:43;;;;;;;0.10;0.10;;;10.00;99.90;;;;;;5104900;28;20016;-79
2021/12/01 10:42:11;;;;;;;0.10;0.10;;;10.10;99.90;;;;;;5091449;28;20108;-79
2021/12/01 10:44:53;;;;;;;0.10;0.10;;;10.20;99.90;;;;;;5098788;28;20027;-79
2021/12/01 10:47:18;;;;;;;0.10;0.10;;;10.20;99.90;;;;;;5103448;28;20020;-78
2021/12/01 10:49:46;;;;;;;0.10;0.10;;;10.10;99.90;;;;;;5099439;28;20028;-78
2021/12/01 10:52:27;;;;;;;0.00;0.00;;;10.10;99.90;;;;;;5090310;28;20474;-78
2021/12/01 10:55:11;;;;;;;0.10;0.10;;;10.50;99.90;;;;;;5091203;28;20080;-78
2021/12/01 10:57:43;;;;;;;0.10;0.10;;;10.20;99.90;;;;;;5091845;28;20217;-78
2021/12/01 11:00:17;;;;;;;0.10;0.10;;;10.30;99.90;;;;;;5108543;28;20024;-79
2021/12/01 11:02:42;;;;;;;;;;;10.30;99.90;;;;;;5113255;28;20023;-78
2021/12/01 11:05:09;;;;;;;0.10;0.10;;;10.40;99.90;;;;;;5116304;28;19912;-78
2021/12/01 11:07:35;;;;;;;0.10;0.10;;;10.40;99.90;;;;;;5093565;28;20028;-78
2021/12/01 11:10:17;;;;;;;0.10;0.10;;;10.40;99.90;;;;;;5111429;28;20046;-79
2021/12/01 11:12:43;;;;;;;0.10;0.10;;;10.70;99.90;;;;;;5095706;28;20023;-78
2021/12/01 11:15:23;;;;;;;0.10;0.10;;;10.30;99.90;;;;;;5095603;28;20097;-79
2021/12/01 11:17:50;;;;;;;0.10;0.10;;;9.70;99.90;;;;;;5095313;28;20020;-79
2021/12/01 11:20:32;;;;;;;0.10;0.10;;;10.30;99.90;;;;;;5096034;28;20024;-78
2021/12/01 11:23:17;;;;;;;0.10;0.10;;;10.30;99.90;;;;;;5096471;28;20029;-79
2021/12/01 11:25:49;;;;;;;0.32;0.32;;;10.30;99.90;;;;;;5106758;28;20086;-79
2021/12/01 11:28:17;;;;;;;0.20;0.20;;;10.20;99.90;;;;;;5111455;28;20028;-78
2021/12/01 11:30:45;;;;;;;0.10;0.10;;;10.20;99.90;;;;;;5113408;28;20026;-78
2021/12/01 11:33:17;;;;;;;0.10;0.10;;;11.20;99.90;;;;;;5103911;28;20034;-80
2021/12/01 11:35:49;;;;;;;0.10;0.10;;;10.80;99.90;;;;;;5102116;28;20512;-79
2021/12/01 11:38:16;;;;;;;0.10;0.10;;;10.30;99.90;;;;;;5115331;28;20016;-81
2021/12/01 11:40:42;;;;;;;0.05;0.05;;;10.30;99.90;;;;;;5116163;28;20126;-81
2021/12/01 11:43:10;;;;;;;0.10;0.10;;;10.40;99.90;;;;;;5115571;28;20019;-81
2021/12/01 11:45:38;;;;;;;0.10;0.10;;;10.70;99.90;;;;;;5115507;28;20027;-80
2021/12/01 11:48:09;;;;;;;0.10;0.10;;;10.90;99.90;;;;;;5115472;28;20129;-79
2021/12/01 11:50:40;;;;;;;0.10;0.10;;;11.10;99.90;;;;;;5115038;28;20024;-81
2021/12/01 11:53:21;;;;;;;0.00;0.00;;;11.10;99.90;;;;;;5110177;28;20035;-79
2021/12/01 11:55:58;;;;;;;0.00;0.00;;;11.10;99.90;;;;;;5102274;28;20111;-79
2021/12/01 11:58:42;;;;;;;0.10;0.10;;;11.20;99.90;;;;;;5106493;28;20030;-79
2021/12/01 12:01:23;;;;;;;0.10;0.10;;;11.40;99.90;;;;;;5095885;28;20431;-79
2021/12/01 12:03:54;;;;;;;0.00;0.00;;;11.50;99.90;;;;;;5096212;28;20073;-79
2021/12/01 12:06:22;;;;;;;0.10;0.10;;;11.40;99.90;;;;;;5096800;28;20028;-80
2021/12/01 12:08:54;;;;;;;0.00;0.00;;;11.30;99.90;;;;;;5096647;28;20032;-78
2021/12/01 12:11:35;;;;;;;0.00;0.00;;;11.20;99.90;;;;;;5095666;28;20027;-79
2021/12/01 12:14:05;;;;;;;0.10;0.10;;;11.30;99.90;;;;;;5096791;28;20040;-78
2021/12/01 12:16:31;;;;;;;0.10;0.10;;;11.30;99.90;;;;;;5098363;28;20059;-79
2021/12/01 12:18:59;;;;;;;0.10;0.10;;;11.40;99.90;;;;;;5119262;28;20439;-80
2021/12/01 12:21:49;;;;;;;0.10;0.10;;;11.30;99.90;;;;;;5133927;28;20024;-78
2021/12/01 12:24:19;;;;;;;0.10;0.10;;;11.40;99.90;;;;;;5135569;28;20430;-80
2021/12/01 12:26:58;;;;;;;0.10;0.10;;;11.30;99.90;;;;;;5126324;28;20024;-80
2021/12/01 12:29:25;;;;;;;0.00;0.00;;;11.20;99.90;;;;;;5113678;28;20020;-79
2021/12/01 12:32:08;;;;;;;0.10;0.10;;;11.10;99.90;;;;;;5106917;28;20100;-78
2021/12/01 12:34:51;;;;;;;0.10;0.10;;;10.90;99.90;;;;;;5118814;28;20040;-80
2021/12/01 12:37:23;;;;;;;0.10;0.10;;;10.80;99.90;;;;;;5109577;28;20492;-80
2021/12/01 12:39:48;;;;;;;0.10;0.10;;;10.90;99.90;;;;;;5107311;28;20499;-79
2021/12/01 12:42:15;;;;;;;0.10;0.10;;;10.90;99.90;;;;;;5116126;28;20023;-79
2021/12/01 12:44:46;;;;;;;0.10;0.10;;;11.00;99.90;;;;;;5107988;28;20016;-79
2021/12/01 12:47:22;;;;;;;1.10;1.10;;;10.90;99.90;;;;;;5092400;28;20393;-79
2021/12/01 12:50:01;;;;;;;0.10;0.10;;;10.80;99.90;;;;;;5105266;28;20111;-80
2021/12/01 12:52:26;;;;;;;0.10;0.10;;;10.60;99.90;;;;;;5114082;28;20024;-79
2021/12/01 12:54:58;;;;;;;0.00;0.00;;;10.50;99.90;;;;;;5102490;28;20032;-78
2021/12/01 12:57:26;;;;;;;0.10;0.10;;;10.50;99.90;;;;;;5114086;28;20024;-80
2021/12/01 13:00:17;;;;;;;0.10;0.10;;;10.50;99.90;;;;;;5112868;28;20027;-80
2021/12/01 13:02:43;;;;;;;0.10;0.10;;;10.20;99.90;;;;;;5095868;28;20482;-79
2021/12/01 13:05:08;;;;;;;0.10;0.10;;;10.20;99.90;;;;;;5093286;28;20052;-79